Latest Weather Observations for Westmere

IDV60801

Issued at 10:02 pm EST Thursday 28 July 2016 (issued every 30 minutes, with the page automatically refreshed every 10 minutes)

About weather observations | Map of weather stations | Latest weather observations for VIC | Other Formats
Station Details ID: 089112 Name: WESTMERE Lat: -37.71 Lon: 142.94 Height: 226.0 m
Data from the previous 72 hours. | See also: Recent months at Westmere
Date/Time
EST
Temp
°C
App
Temp
°C
Dew
Point
°C
Rel
Hum
%
Delta-T
°C
Wind Press
QNH
hPa
Press
MSL
hPa
Rain since
9am
mm
Dir  Spd
km/h
Gust
km/h
Spd
kts
Gust
kts
28/10:00pm 10.6 6.2 6.7 77 1.9 NW 19 26 10 14 1022.7 1023.1 0.0
28/09:30pm 10.5 6.1 6.6 77 1.8 NNW 19 22 10 12 1022.6 1023.0 0.0
28/09:00pm 10.5 6.5 6.8 78 1.8 NW 17 20 9 11 1023.1 1023.5 0.0
28/08:30pm 10.7 6.7 6.8 77 1.9 NW 17 22 9 12 1023.2 1023.6 0.0
28/08:00pm 10.8 6.8 6.6 75 2.0 NW 17 20 9 11 1023.2 1023.6 0.0
28/07:30pm 10.9 7.2 6.5 74 2.1 NNW 15 20 8 11 1023.1 1023.5 0.0
28/07:00pm 11.0 7.0 6.6 74 2.1 NNW 17 22 9 12 1023.1 1023.5 0.0
28/06:30pm 11.1 7.9 7.0 76 2.0 NNW 13 17 7 9 1022.9 1023.3 0.0
28/06:00pm 10.8 7.3 7.1 78 1.8 NW 15 17 8 9 1022.8 1023.2 0.0
28/05:30pm 11.5 8.0 7.4 76 2.0 NW 15 19 8 10 1022.7 1023.1 0.0
28/05:00pm 12.2 8.0 7.5 73 2.3 NW 19 24 10 13 1022.5 1022.9 0.0
28/04:30pm 12.9 8.2 7.6 70 2.6 WNW 22 32 12 17 1022.3 1022.7 0.0
28/04:00pm 13.4 8.8 8.0 70 2.7 WNW 22 32 12 17 1022.4 1022.8 0.0
28/03:30pm 12.8 7.9 8.3 74 2.3 WNW 24 33 13 18 1022.6 1023.0 0.0
28/03:00pm 13.5 8.5 8.1 70 2.7 WNW 24 32 13 17 1022.4 1022.8 0.0
28/02:30pm 13.7 8.7 8.1 69 2.8 WNW 24 33 13 18 1022.5 1022.9 0.0
28/02:00pm 12.9 7.4 7.6 70 2.6 WNW 26 39 14 21 1022.8 1023.2 0.0
28/01:30pm 12.1 7.1 8.0 76 2.0 WNW 24 32 13 17 1023.1 1023.5 0.0
28/01:00pm 12.1 7.0 7.8 75 2.1 WNW 24 35 13 19 1023.2 1023.6 0.0
28/12:30pm 12.1 6.6 7.4 73 2.3 WNW 26 37 14 20 1023.4 1023.8 0.0
28/12:00pm 12.0 6.1 7.7 75 2.1 WNW 28 39 15 21 1023.9 1024.3 0.0
28/11:30am 11.9 6.3 7.2 73 2.3 WNW 26 37 14 20 1024.2 1024.6 0.0
28/11:00am 11.6 7.5 7.7 77 1.9 NW 19 24 10 13 1024.3 1024.8 0.0
28/10:30am 10.8 7.0 7.7 81 1.5 NW 17 24 9 13 1024.2 1024.6 0.0
28/10:00am 10.3 6.5 7.4 82 1.4 NW 17 24 9 13 1024.2 1024.6 0.0
28/09:30am 10.4 5.6 7.5 82 1.4 NW 22 32 12 17 1024.1 1024.5 0.0
28/09:00am 9.6 5.3 7.2 85 1.1 NW 19 24 10 13 1023.8 1024.2 0.0
28/08:30am 8.8 3.5 6.6 86 1.0 WNW 24 33 13 18 1023.6 1024.0 0.0
28/08:00am 8.4 4.0 6.7 89 0.8 NW 19 24 10 13 1023.4 1023.8 0.0
28/07:30am 8.3 3.9 6.6 89 0.8 WNW 19 28 10 15 1023.4 1023.8 0.0
28/07:00am 8.3 4.7 6.8 90 0.7 WNW 15 19 8 10 1023.2 1023.6 0.0
28/06:30am 8.3 4.3 6.8 90 0.7 WNW 17 22 9 12 1023.2 1023.6 0.0
28/06:00am 8.4 4.9 7.2 92 0.6 WNW 15 20 8 11 1023.1 1023.5 0.0
28/05:30am 8.6 4.7 7.1 90 0.7 WNW 17 26 9 14 1023.0 1023.4 0.0
28/05:00am 8.6 4.1 6.9 89 0.8 WNW 20 30 11 16 1022.6 1023.0 0.0
28/04:30am 8.5 4.2 6.8 89 0.8 WNW 19 26 10 14 1022.5 1022.9 0.0
28/04:00am 8.3 3.7 6.6 89 0.8 NW 20 30 11 16 1022.5 1022.9 0.0
28/03:30am 8.5 3.9 6.5 87 0.9 WNW 20 28 11 15 1022.5 1022.9 0.0
28/03:00am 8.3 3.9 6.6 89 0.8 WNW 19 26 10 14 1022.6 1023.0 0.0
28/02:30am 8.1 3.7 6.6 90 0.7 WNW 19 30 10 16 1022.7 1023.1 0.0
28/02:00am 8.2 3.6 6.7 90 0.7 WNW 20 32 11 17 1022.7 1023.1 0.0
28/01:30am 8.0 4.3 6.5 90 0.7 NW 15 22 8 12 1022.7 1023.1 0.0
28/01:00am 7.8 4.1 6.4 91 0.6 NW 15 22 8 12 1022.6 1023.0 0.0
28/12:30am 7.2 3.4 5.8 91 0.6 WNW 15 19 8 10 1022.8 1023.2 0.0
28/12:00am 6.8 3.3 5.3 90 0.7 NW 13 17 7 9 1022.7 1023.1 0.0
 
Date/Time
EST
Temp
°C
App
Temp
°C
Dew
Point
°C
Rel
Hum
%
Delta-T
°C
Wind Press
QNH
hPa
Press
MSL
hPa
Rain since
9am
mm
Dir  Spd
km/h
Gust
km/h
Spd
kts
Gust
kts
27/11:30pm 7.0 4.2 5.2 88 0.8 WNW 9 13 5 7 1022.7 1023.1 0.0
27/11:00pm 7.8 4.0 5.8 87 0.9 NW 15 19 8 10 1022.6 1023.0 0.0
27/10:30pm 7.8 3.6 5.8 87 0.9 NW 17 20 9 11 1022.5 1022.9 0.0
27/10:00pm 7.8 3.6 5.6 86 1.0 NW 17 22 9 12 1022.5 1022.9 0.0
27/09:30pm 7.4 3.2 5.5 88 0.9 NW 17 22 9 12 1022.5 1022.9 0.0
27/09:00pm 7.8 3.9 5.4 85 1.1 WNW 15 22 8 12 1022.5 1022.9 0.0
27/08:30pm 8.0 3.8 5.5 84 1.1 WNW 17 24 9 13 1022.6 1023.0 0.0
27/08:00pm 8.2 4.6 5.0 80 1.4 WNW 13 17 7 9 1022.8 1023.2 0.0
27/07:30pm 8.3 4.3 4.7 78 1.6 WNW 15 20 8 11 1022.3 1022.7 0.0
27/07:00pm 8.4 4.4 4.8 78 1.6 WNW 15 20 8 11 1021.4 1021.9 0.0
27/06:30pm 8.5 4.1 4.5 76 1.8 W 17 22 9 12 1020.8 1021.3 0.0
27/06:00pm 8.5 4.8 4.3 75 1.9 WNW 13 22 7 12 1020.5 1020.9 0.0
27/05:30pm 8.6 4.1 4.4 75 1.9 WNW 17 24 9 13 1019.9 1020.3 0.0
27/05:00pm 8.8 3.7 4.2 73 2.0 W 20 33 11 18 1020.1 1020.5 0.0
27/04:30pm 9.0 4.3 5.0 76 1.8 W 19 26 10 14 1019.7 1020.1 0.0
27/04:00pm 8.4 3.1 5.2 80 1.4 W 22 35 12 19 1019.5 1019.9 0.0
27/03:30pm 9.0 3.5 4.2 72 2.1 W 22 33 12 18 1019.3 1019.7 0.0
27/03:00pm 9.4 4.3 4.2 70 2.3 W 20 32 11 17 1018.8 1019.2 0.0
27/02:30pm 9.8 5.0 4.8 71 2.3 W 19 28 10 15 1018.4 1018.8 0.0
27/02:00pm 9.6 3.9 5.0 73 2.1 WSW 24 35 13 19 1018.1 1018.5 0.0
27/01:30pm 9.2 4.2 4.6 73 2.1 WSW 20 32 11 17 1018.0 1018.4 0.0
27/01:00pm 8.4 3.6 4.6 77 1.7 WSW 19 32 10 17 1018.0 1018.4 0.0
27/12:30pm 8.5 3.5 4.5 76 1.8 WSW 20 26 11 14 1018.0 1018.4 0.0
27/12:00pm 8.9 3.5 4.5 74 2.0 WSW 22 32 12 17 1017.5 1017.9 0.0
27/11:30am 8.8 3.5 4.8 76 1.8 SW 22 32 12 17 1017.3 1017.7 0.0
27/11:00am 8.8 3.8 4.6 75 1.9 WSW 20 28 11 15 1016.8 1017.2 0.0
27/10:30am 8.2 2.4 4.4 77 1.7 SW 24 30 13 16 1016.6 1017.0 0.0
27/10:00am 7.9 3.6 5.2 83 1.2 WSW 17 24 9 13 1016.1 1016.5 0.0
27/09:30am 7.3 2.5 4.4 82 1.3 WSW 19 26 10 14 1015.6 1016.0 0.0
27/09:00am 6.8 2.8 5.1 89 0.8 WSW 15 20 8 11 1015.1 1015.5 0.8
27/08:30am 7.1 2.2 5.1 87 0.9 SW 20 32 11 17 1014.6 1015.0 0.8
27/08:00am 7.0 2.8 5.5 90 0.7 SW 17 22 9 12 1013.7 1014.1 0.8
27/07:30am 7.2 2.3 5.3 88 0.9 SW 20 30 11 16 1012.8 1013.1 0.8
27/07:00am 7.4 1.9 5.9 90 0.7 SW 24 33 13 18 1011.7 1012.1 0.8
27/06:30am 7.8 2.2 7.1 95 0.3 SW 26 33 14 18 1010.9 1011.3 0.8
27/06:00am 7.9 4.4 7.1 95 0.4 WSW 15 24 8 13 1009.7 1010.1 0.4
27/05:30am 8.0 3.7 6.8 92 0.6 W 19 26 10 14 1008.9 1009.2 0.0
27/05:00am 8.0 4.1 6.9 93 0.5 W 17 26 9 14 1008.2 1008.5 0.0
27/04:30am 7.5 3.4 6.4 93 0.5 WNW 17 28 9 15 1007.4 1007.8 0.0
27/04:00am 7.8 4.2 6.6 92 0.6 WNW 15 24 8 13 1006.8 1007.2 0.0
27/03:30am 7.6 3.6 6.7 94 0.4 WNW 17 24 9 13 1006.4 1006.8 0.0
27/03:00am 7.6 3.6 6.5 93 0.5 WNW 17 24 9 13 1006.0 1006.4 0.0
27/02:30am 7.3 3.6 6.1 92 0.5 NW 15 20 8 11 1005.8 1006.1 0.0
27/02:00am 7.1 3.3 5.6 90 0.7 NW 15 19 8 10 1005.3 1005.6 0.0
27/01:30am 7.0 2.7 5.3 89 0.8 NNW 17 22 9 12 1004.8 1005.1 0.0
27/01:00am 6.8 2.5 5.1 89 0.8 NNW 17 20 9 11 1004.8 1005.1 0.0
27/12:30am 6.7 2.7 5.0 89 0.8 NNW 15 20 8 11 1004.6 1004.9 0.0
27/12:00am 6.8 2.1 5.0 88 0.8 NNW 19 28 10 15 1004.3 1004.6 0.0
 
Date/Time
EST
Temp
°C
App
Temp
°C
Dew
Point
°C
Rel
Hum
%
Delta-T
°C
Wind Press
QNH
hPa
Press
MSL
hPa
Rain since
9am
mm
Dir  Spd
km/h
Gust
km/h
Spd
kts
Gust
kts
26/11:30pm 7.0 1.3 5.0 87 0.9 NNW 24 32 13 17 1004.2 1004.5 0.0
26/11:00pm 7.3 0.9 5.0 85 1.0 N 28 41 15 22 1004.1 1004.4 0.0
26/10:30pm 7.3 0.9 5.0 85 1.0 N 28 39 15 21 1004.1 1004.4 0.0
26/10:00pm 7.1 -0.1 4.8 85 1.0 N 32 44 17 24 1003.8 1004.1 0.0
26/09:30pm 7.3 -0.5 4.8 84 1.1 N 35 52 19 28 1004.0 1004.3 0.0
26/09:00pm 7.3 -1.0 4.3 81 1.3 N 37 50 20 27 1004.2 1004.5 0.0
26/08:30pm 7.2 -1.1 4.3 82 1.3 N 37 50 20 27 1004.2 1004.5 0.0
26/08:00pm 7.2 0.3 4.5 83 1.2 N 30 41 16 22 1004.8 1005.1 0.0
26/07:30pm 7.0 -0.5 4.7 85 1.0 N 33 46 18 25 1004.7 1005.0 0.0
26/07:00pm 7.4 -0.9 4.4 81 1.3 N 37 52 20 28 1005.1 1005.4 0.0
26/06:30pm 7.0 0.5 4.7 85 1.0 N 28 41 15 22 1005.4 1005.7 0.0
26/06:00pm 7.0 -0.3 4.5 84 1.1 N 32 43 17 23 1005.7 1006.0 0.0
26/05:30pm 7.4 -0.1 4.4 81 1.3 N 33 50 18 27 1006.0 1006.4 0.0
26/05:00pm 8.0 1.1 4.6 79 1.5 N 30 43 16 23 1006.2 1006.6 0.0
26/04:30pm 8.0 1.4 4.4 78 1.6 NNW 28 43 15 23 1006.6 1007.0 0.0
26/04:00pm 8.0 0.7 4.4 78 1.6 NNW 32 43 17 23 1007.0 1007.4 0.0
26/03:30pm 8.1 1.9 4.1 76 1.8 N 26 39 14 21 1007.5 1007.9 0.0
26/03:00pm 8.6 2.2 5.0 78 1.6 N 28 41 15 22 1008.1 1008.4 0.0
26/02:30pm 8.2 1.8 5.0 80 1.4 N 28 41 15 22 1008.4 1008.7 0.0
26/02:00pm 7.4 0.9 4.7 83 1.2 N 28 37 15 20 1008.9 1009.2 0.0
26/01:30pm 7.3 0.4 4.8 84 1.1 N 30 41 16 22 1009.6 1010.0 0.0
26/01:00pm 7.0 -0.3 4.3 83 1.2 N 32 43 17 23 1010.0 1010.4 0.0
26/12:30pm 7.0 0.8 4.1 82 1.3 N 26 39 14 21 1010.8 1011.2 0.0
26/12:00pm 6.6 0.3 3.8 82 1.2 N 26 37 14 20 1011.0 1011.4 0.0
26/11:30am 6.4 0.1 3.9 84 1.1 N 26 37 14 20 1011.5 1011.9 0.0
26/11:00am 6.4 0.9 4.1 85 1.0 N 22 32 12 17 1011.8 1012.2 0.0
26/10:30am 6.1 0.1 3.6 84 1.1 N 24 32 13 17 1011.8 1012.2 0.0
26/10:00am 5.7 -0.3 3.4 85 1.0 N 24 33 13 18 1011.8 1012.2 0.0
26/09:30am 5.9 0.8 2.9 81 1.3 NNW 19 26 10 14 1011.8 1012.2 0.0
26/09:00am 5.2 0.0 2.6 83 1.1 NNW 19 26 10 14 1011.5 1011.9 8.6
26/08:30am 4.4 -0.5 2.1 85 0.9 NNW 17 22 9 12 1011.4 1011.8 8.6
26/08:00am 4.0 -1.4 1.5 84 1.0 NNW 19 24 10 13 1011.2 1011.6 8.6
26/07:30am 3.6 -1.4 1.5 86 0.8 NNW 17 24 9 13 1011.1 1011.5 8.6
26/07:00am 3.2 -1.4 1.3 87 0.7 NW 15 19 8 10 1010.8 1011.2 8.6
26/06:30am 4.0 -1.4 1.5 84 1.0 NW 19 26 10 14 1010.6 1011.0 8.6
26/06:00am 3.7 -1.2 1.7 87 0.8 NW 17 20 9 11 1010.5 1010.9 8.6
26/05:30am 3.6 -1.8 1.5 86 0.8 NW 19 22 10 12 1010.0 1010.4 8.6
26/05:00am 3.3 -1.6 1.7 89 0.6 NW 17 24 9 13 1009.9 1010.3 8.6
26/04:30am 3.3 -1.7 1.5 88 0.7 NW 17 22 9 12 1010.0 1010.4 8.6
26/04:00am 3.4 -1.2 1.6 88 0.7 NW 15 19 8 10 1010.1 1010.5 8.6
26/03:30am 3.9 -1.0 1.8 86 0.8 NW 17 22 9 12 1009.9 1010.3 8.6
26/03:00am 4.2 -1.3 1.9 85 0.9 WNW 20 37 11 20 1009.7 1010.1 8.6
26/02:30am 5.0 -1.6 1.8 80 1.3 WNW 26 39 14 21 1009.7 1010.1 8.6
26/02:00am 4.7 -1.9 1.9 82 1.1 WNW 26 37 14 20 1009.6 1010.0 8.6
26/01:30am 4.9 -1.3 1.9 81 1.2 WNW 24 32 13 17 1009.3 1009.6 8.6
26/01:00am 5.1 -1.6 1.4 77 1.5 WNW 26 37 14 20 1009.0 1009.3 8.6
26/12:30am 5.2 -1.1 1.3 76 1.6 WNW 24 35 13 19 1008.9 1009.2 8.6
26/12:00am 5.0 -2.0 1.8 80 1.3 WNW 28 41 15 22 1008.7 1009.0 8.6
 
Date/Time
EST
Temp
°C
App
Temp
°C
Dew
Point
°C
Rel
Hum
%
Delta-T
°C
Wind Press
QNH
hPa
Press
MSL
hPa
Rain since
9am
mm
Dir  Spd
km/h
Gust
km/h
Spd
kts
Gust
kts
25/11:30pm 5.3 -2.2 1.4 76 1.6 WNW 30 43 16 23 1008.2 1008.5 8.6
25/11:00pm 5.3 -0.9 2.0 79 1.3 WNW 24 33 13 18 1007.9 1008.2 8.6
25/10:30pm 5.3 -0.5 2.1 80 1.3 WNW 22 32 12 17 1007.6 1008.0 8.6

Other Formats:

Comma delimited format used in spreadsheet applications
http://www.bom.gov.au/fwo/IDV60801/IDV60801.95840.axf

JavaScript Object Notation format (JSON) in row-major order
http://www.bom.gov.au/fwo/IDV60801/IDV60801.95840.json